createdAt,value
2023-04-23T00:01:54.257Z,12.48
2023-04-23T00:04:23.144Z,12.80
2023-04-23T00:06:51.453Z,12.35
2023-04-23T00:09:19.826Z,12.73
2023-04-23T00:11:47.975Z,13.43
2023-04-23T00:14:15.004Z,12.43
2023-04-23T00:16:44.657Z,12.32
2023-04-23T00:19:12.483Z,13.05
2023-04-23T00:21:39.387Z,12.45
2023-04-23T00:24:06.585Z,12.90
2023-04-23T00:26:33.390Z,12.68
2023-04-23T00:29:00.240Z,11.82
2023-04-23T00:31:27.395Z,11.77
2023-04-23T00:33:54.906Z,13.00
2023-04-23T00:36:21.750Z,12.05
2023-04-23T00:38:49.938Z,12.40
2023-04-23T00:41:19.495Z,12.48
2023-04-23T00:43:47.085Z,12.07
2023-04-23T00:46:14.194Z,12.65
2023-04-23T00:48:41.967Z,11.80
2023-04-23T00:51:11.405Z,12.80
2023-04-23T00:53:38.293Z,11.70
2023-04-23T00:56:06.613Z,12.57
2023-04-23T00:58:36.785Z,12.35
2023-04-23T01:01:04.878Z,13.00
2023-04-23T01:03:36.383Z,12.75
2023-04-23T01:06:04.323Z,11.98
2023-04-23T01:08:34.079Z,12.85
2023-04-23T01:11:03.352Z,12.93
2023-04-23T01:13:30.791Z,12.75
2023-04-23T01:15:57.691Z,12.20
2023-04-23T01:18:24.757Z,11.93
2023-04-23T01:20:51.968Z,13.38
2023-04-23T01:23:19.221Z,14.25
2023-04-23T01:25:47.126Z,12.52
2023-04-23T01:28:14.392Z,12.90
2023-04-23T01:30:44.421Z,15.48
2023-04-23T01:33:11.867Z,17.02
2023-04-23T01:35:40.888Z,18.27
2023-04-23T01:38:11.202Z,20.15
2023-04-23T01:40:38.559Z,21.27
2023-04-23T01:43:06.890Z,22.73
2023-04-23T01:45:34.248Z,22.38
2023-04-23T01:48:02.112Z,22.92
2023-04-23T01:50:30.191Z,24.23
2023-04-23T01:52:57.375Z,23.52
2023-04-23T01:55:24.709Z,25.55
2023-04-23T01:57:52.393Z,24.42
2023-04-23T02:00:21.275Z,19.88
2023-04-23T02:02:48.429Z,22.10
2023-04-23T02:05:18.879Z,19.58
2023-04-23T02:07:52.123Z,18.17
2023-04-23T02:10:21.122Z,18.42
2023-04-23T02:12:48.978Z,17.45
2023-04-23T02:15:16.634Z,17.33
2023-04-23T02:17:43.768Z,16.45
2023-04-23T02:20:12.348Z,17.15
2023-04-23T02:22:42.090Z,16.45
2023-04-23T02:25:10.171Z,15.60
2023-04-23T02:27:37.190Z,15.23
2023-04-23T02:30:04.998Z,15.48
2023-04-23T02:32:32.799Z,16.38
2023-04-23T02:35:02.414Z,16.13
2023-04-23T02:37:33.701Z,16.37
2023-04-23T02:40:00.693Z,15.35
2023-04-23T02:42:31.800Z,15.35
2023-04-23T02:44:59.301Z,15.70
2023-04-23T02:47:26.251Z,15.23
2023-04-23T02:49:53.902Z,13.38
2023-04-23T02:52:21.396Z,14.43
2023-04-23T02:54:48.408Z,13.60
2023-04-23T02:57:16.608Z,13.10
2023-04-23T02:59:44.194Z,14.00
2023-04-23T03:02:12.990Z,13.25
2023-04-23T03:04:40.590Z,12.32
2023-04-23T03:07:07.879Z,11.93
2023-04-23T03:09:35.709Z,12.70
2023-04-23T03:12:02.559Z,12.90
2023-04-23T03:14:30.087Z,12.02
2023-04-23T03:17:00.560Z,12.02
2023-04-23T03:19:29.877Z,12.43
2023-04-23T03:21:57.797Z,12.77
2023-04-23T03:24:24.729Z,12.50
2023-04-23T03:26:51.645Z,12.50
2023-04-23T03:29:18.480Z,11.98
2023-04-23T03:31:45.877Z,14.30
2023-04-23T03:34:12.764Z,12.55
2023-04-23T03:36:39.631Z,12.48
2023-04-23T03:39:07.884Z,13.30
2023-04-23T03:41:47.215Z,12.80
2023-04-23T03:44:17.235Z,13.55
2023-04-23T03:46:46.150Z,14.07
2023-04-23T03:49:15.844Z,12.27
2023-04-23T03:51:42.980Z,13.50
2023-04-23T03:54:10.563Z,13.82
2023-04-23T03:56:42.748Z,13.37
2023-04-23T03:59:18.889Z,14.25
2023-04-23T04:01:49.577Z,13.82
2023-04-23T04:04:18.654Z,13.98
2023-04-23T04:06:46.062Z,14.35
2023-04-23T04:09:14.170Z,13.07
2023-04-23T04:11:41.361Z,13.82
2023-04-23T04:14:11.119Z,13.55
2023-04-23T04:16:38.301Z,13.25
2023-04-23T04:19:05.841Z,12.93
2023-04-23T04:21:34.121Z,12.98
2023-04-23T04:24:04.448Z,13.90
2023-04-23T04:26:32.769Z,12.85
2023-04-23T04:29:01.849Z,13.27
2023-04-23T04:31:29.384Z,14.40
2023-04-23T04:33:57.248Z,14.63
2023-04-23T04:36:25.376Z,14.55
2023-04-23T04:38:56.126Z,14.38
2023-04-23T04:41:25.769Z,15.50
2023-04-23T04:43:54.758Z,15.13
2023-04-23T04:46:22.121Z,14.90
2023-04-23T04:48:49.433Z,14.43
2023-04-23T04:51:17.276Z,14.13
2023-04-23T04:53:45.568Z,12.98
2023-04-23T04:56:12.789Z,13.90
2023-04-23T04:58:39.812Z,14.20
2023-04-23T05:01:07.308Z,14.27
2023-04-23T05:03:34.344Z,14.90
2023-04-23T05:06:01.365Z,13.95
2023-04-23T05:08:28.342Z,14.43
2023-04-23T05:10:55.288Z,13.05
2023-04-23T05:13:22.129Z,13.18
2023-04-23T05:15:49.136Z,13.52
2023-04-23T05:18:16.114Z,12.80
2023-04-23T05:20:43.181Z,14.00
2023-04-23T05:23:10.314Z,13.68
2023-04-23T05:25:37.166Z,12.30
2023-04-23T05:28:04.410Z,11.68
2023-04-23T05:30:32.234Z,12.10
2023-04-23T05:32:59.258Z,11.68
2023-04-23T05:35:26.244Z,12.25
2023-04-23T05:37:53.208Z,12.35
2023-04-23T05:40:21.173Z,11.95
2023-04-23T05:42:49.099Z,11.85
2023-04-23T05:45:18.291Z,11.48
2023-04-23T05:47:46.152Z,12.35
2023-04-23T05:50:13.562Z,12.55
2023-04-23T05:52:40.586Z,12.57
2023-04-23T05:55:09.838Z,11.43
2023-04-23T05:57:38.220Z,11.55
2023-04-23T06:00:09.510Z,12.27
2023-04-23T06:02:43.801Z,10.82
2023-04-23T06:05:11.348Z,11.82
2023-04-23T06:07:40.880Z,11.65
2023-04-23T06:10:17.689Z,10.10
2023-04-23T06:12:49.518Z,10.45
2023-04-23T06:15:16.378Z,10.75
2023-04-23T06:17:43.293Z,11.02
2023-04-23T06:20:12.175Z,10.32
2023-04-23T06:22:39.283Z,10.20
2023-04-23T06:25:06.936Z,11.07
2023-04-23T06:27:34.170Z,11.40
2023-04-23T06:30:09.060Z,11.10
2023-04-23T06:32:36.422Z,9.85
2023-04-23T06:35:06.962Z,9.57
2023-04-23T06:37:34.061Z,10.05
2023-04-23T06:40:01.719Z,9.52
2023-04-23T06:42:30.916Z,9.77
2023-04-23T06:45:18.546Z,8.82
2023-04-23T06:47:45.700Z,9.80
2023-04-23T06:50:12.916Z,8.93
2023-04-23T06:52:43.069Z,9.65
2023-04-23T06:55:10.337Z,10.18
2023-04-23T06:57:37.154Z,10.57
2023-04-23T07:00:06.750Z,9.90
2023-04-23T07:02:37.932Z,9.43
2023-04-23T07:05:05.656Z,9.35
2023-04-23T07:07:32.691Z,9.70
2023-04-23T07:09:59.532Z,9.95
2023-04-23T07:12:26.513Z,10.10
2023-04-23T07:14:54.474Z,9.68
2023-04-23T07:17:21.836Z,9.57
2023-04-23T07:19:49.584Z,9.68
2023-04-23T07:22:16.709Z,9.38
2023-04-23T07:24:43.871Z,9.52
2023-04-23T07:27:11.088Z,9.27
2023-04-23T07:29:38.174Z,9.63
2023-04-23T07:32:06.166Z,9.57
2023-04-23T07:34:33.342Z,9.60
2023-04-23T07:37:01.049Z,9.05
2023-04-23T07:39:27.932Z,9.68
2023-04-23T07:41:55.491Z,9.45
2023-04-23T07:44:22.773Z,9.43
2023-04-23T07:46:49.563Z,10.30
2023-04-23T07:49:16.459Z,9.88
2023-04-23T07:51:43.475Z,9.10
2023-04-23T07:54:11.638Z,9.70
2023-04-23T07:56:38.501Z,9.70
2023-04-23T07:59:06.225Z,10.15
2023-04-23T08:01:34.152Z,9.93
2023-04-23T08:04:01.325Z,10.07
2023-04-23T08:06:31.339Z,10.13
2023-04-23T08:08:58.515Z,10.18
2023-04-23T08:11:25.385Z,10.52
2023-04-23T08:13:52.159Z,10.10
2023-04-23T08:16:20.156Z,10.55
2023-04-23T08:19:03.675Z,10.65
2023-04-23T08:21:33.889Z,9.20
2023-04-23T08:24:03.235Z,10.00
2023-04-23T08:26:30.920Z,9.60
2023-04-23T08:28:57.928Z,9.98
2023-04-23T08:31:26.983Z,10.77
2023-04-23T08:33:54.712Z,9.15
2023-04-23T08:36:25.608Z,9.77
2023-04-23T08:38:52.404Z,9.35
2023-04-23T08:41:22.865Z,9.10
2023-04-23T08:44:01.420Z,9.00
2023-04-23T08:46:34.830Z,9.70
2023-04-23T08:49:03.024Z,9.18
2023-04-23T08:51:33.655Z,8.82
2023-04-23T08:54:03.473Z,8.32
2023-04-23T08:56:31.725Z,8.50
2023-04-23T08:58:59.851Z,8.05
2023-04-23T09:01:26.815Z,7.57
2023-04-23T09:03:54.569Z,7.03
2023-04-23T09:06:21.772Z,5.25
2023-04-23T09:08:49.038Z,5.03
2023-04-23T09:11:17.241Z,4.70
2023-04-23T09:13:44.246Z,4.93
2023-04-23T09:16:11.425Z,5.38
2023-04-23T09:18:38.875Z,4.45
2023-04-23T09:21:07.087Z,4.75
2023-04-23T09:23:34.770Z,4.20
2023-04-23T09:26:05.876Z,5.00
2023-04-23T09:28:38.981Z,4.63
2023-04-23T09:31:06.534Z,4.57
2023-04-23T09:33:37.170Z,4.47
2023-04-23T09:36:14.211Z,4.60
2023-04-23T09:38:43.963Z,5.00
2023-04-23T09:41:25.210Z,4.50
2023-04-23T09:43:54.854Z,4.53
2023-04-23T09:46:38.103Z,5.03
2023-04-23T09:49:08.918Z,4.95
2023-04-23T09:51:40.721Z,4.63
2023-04-23T09:54:22.795Z,4.10
2023-04-23T09:56:57.048Z,4.75
2023-04-23T09:59:45.797Z,4.70
2023-04-23T10:02:13.863Z,4.50
2023-04-23T10:04:42.198Z,4.57
2023-04-23T10:09:46.468Z,4.03
2023-04-23T10:14:46.126Z,4.10
2023-04-23T10:17:15.737Z,4.40
2023-04-23T10:19:44.561Z,4.55
2023-04-23T10:24:47.921Z,3.97
2023-04-23T10:29:52.678Z,4.68
2023-04-23T10:32:23.847Z,3.90
2023-04-23T10:34:52.178Z,3.92
2023-04-23T10:37:20.956Z,4.30
2023-04-23T10:39:53.896Z,3.50
2023-04-23T10:42:22.004Z,4.20
2023-04-23T10:44:59.555Z,4.63
2023-04-23T10:47:32.912Z,3.83
2023-04-23T10:50:38.061Z,4.28
2023-04-23T10:53:22.505Z,3.55
2023-04-23T10:55:50.527Z,3.83
2023-04-23T10:58:17.407Z,4.00
2023-04-23T11:00:48.410Z,3.40
2023-04-23T11:03:44.385Z,3.75
2023-04-23T11:06:20.318Z,4.22
2023-04-23T11:08:56.978Z,4.43
2023-04-23T11:11:40.420Z,4.28
2023-04-23T11:14:17.012Z,4.15
2023-04-23T11:16:44.450Z,4.20
2023-04-23T11:19:12.859Z,3.70
2023-04-23T11:22:20.688Z,3.45
2023-04-23T11:24:49.632Z,3.60
2023-04-23T11:27:19.285Z,3.65
2023-04-23T11:29:47.225Z,4.05
2023-04-23T11:32:17.642Z,4.28
2023-04-23T11:34:47.245Z,4.50
2023-04-23T11:37:20.006Z,3.78
2023-04-23T11:42:23.220Z,4.47
2023-04-23T11:44:50.292Z,4.05
2023-04-23T11:47:18.811Z,4.55
2023-04-23T11:49:47.110Z,3.85
2023-04-23T11:52:15.554Z,4.35
2023-04-23T11:54:42.773Z,3.80
2023-04-23T11:57:10.682Z,3.95
2023-04-23T11:59:37.940Z,3.83
2023-04-23T12:02:10.049Z,3.85
2023-04-23T12:04:41.040Z,3.58
2023-04-23T12:07:19.395Z,4.00
2023-04-23T12:09:55.142Z,3.85
2023-04-23T12:12:22.850Z,3.70
2023-04-23T12:14:52.319Z,3.88
2023-04-23T12:17:20.596Z,4.03
2023-04-23T12:19:47.999Z,3.60
2023-04-23T12:22:15.344Z,3.95
2023-04-23T12:24:54.569Z,3.47
2023-04-23T12:27:26.664Z,3.92
2023-04-23T12:30:07.448Z,3.90
2023-04-23T12:32:40.024Z,3.50
2023-04-23T12:35:11.177Z,3.80
2023-04-23T12:37:39.285Z,3.83
2023-04-23T12:40:07.490Z,3.90
2023-04-23T12:42:35.543Z,3.40
2023-04-23T12:45:10.138Z,3.20
2023-04-23T12:47:37.113Z,3.35
2023-04-23T12:50:05.825Z,3.78
2023-04-23T12:52:32.854Z,4.03
2023-04-23T12:55:01.477Z,3.60
2023-04-23T12:57:30.207Z,3.42
2023-04-23T12:59:57.000Z,4.53
2023-04-23T13:02:24.868Z,3.83
2023-04-23T13:04:52.082Z,3.42
2023-04-23T13:07:19.223Z,4.82
2023-04-23T13:09:46.023Z,4.53
2023-04-23T13:12:12.810Z,3.70
2023-04-23T13:14:39.874Z,3.40
2023-04-23T13:17:10.071Z,3.80
2023-04-23T13:19:39.877Z,3.92
2023-04-23T13:22:07.217Z,3.97
2023-04-23T13:24:34.179Z,3.25
2023-04-23T13:27:01.885Z,3.20
2023-04-23T13:29:28.993Z,3.20
2023-04-23T13:31:57.001Z,3.97
2023-04-23T13:34:24.034Z,3.60
2023-04-23T13:36:50.965Z,3.60
2023-04-23T13:39:21.449Z,3.17
2023-04-23T13:41:59.263Z,3.90
2023-04-23T13:44:29.563Z,3.67
2023-04-23T13:46:59.827Z,3.45
2023-04-23T13:49:27.468Z,3.80
2023-04-23T13:51:59.016Z,4.00
2023-04-23T13:54:29.489Z,3.13
2023-04-23T13:56:57.049Z,3.35
2023-04-23T13:59:25.535Z,3.75
2023-04-23T14:01:52.366Z,3.72
2023-04-23T14:04:21.082Z,4.15
2023-04-23T14:06:47.927Z,3.38
2023-04-23T14:09:14.783Z,4.45
2023-04-23T14:11:41.967Z,4.22
2023-04-23T14:14:08.928Z,3.78
2023-04-23T14:16:35.893Z,4.05
2023-04-23T14:19:02.747Z,4.15
2023-04-23T14:21:29.673Z,3.30
2023-04-23T14:24:16.784Z,4.47
2023-04-23T14:26:49.511Z,3.63
2023-04-23T14:29:27.252Z,3.67
2023-04-23T14:31:54.186Z,3.90
2023-04-23T14:34:22.922Z,3.80
2023-04-23T14:36:49.800Z,3.80
2023-04-23T14:39:17.074Z,3.72
2023-04-23T14:41:44.024Z,3.22
2023-04-23T14:44:12.441Z,3.65
2023-04-23T14:46:40.496Z,3.60
2023-04-23T14:49:07.367Z,3.40
2023-04-23T14:51:34.420Z,3.40
2023-04-23T14:54:01.473Z,3.85
2023-04-23T14:56:28.445Z,3.60
2023-04-23T14:58:55.232Z,3.30
2023-04-23T15:01:22.223Z,3.40
2023-04-23T15:03:49.298Z,3.72
2023-04-23T15:06:17.924Z,3.72
2023-04-23T15:08:44.765Z,4.72
2023-04-23T15:11:15.668Z,3.58
2023-04-23T15:14:06.629Z,3.97
2023-04-23T15:19:15.262Z,4.00
2023-04-23T15:21:43.273Z,3.83
2023-04-23T15:24:10.414Z,3.85
2023-04-23T15:26:37.742Z,3.35
2023-04-23T15:29:08.909Z,3.50
2023-04-23T15:31:36.708Z,3.20
2023-04-23T15:34:06.158Z,3.60
2023-04-23T15:36:34.807Z,3.88
2023-04-23T15:39:01.873Z,3.85
2023-04-23T15:41:29.464Z,3.90
2023-04-23T15:43:56.760Z,3.58
2023-04-23T15:46:28.073Z,3.65
2023-04-23T15:48:54.876Z,3.97
2023-04-23T15:51:21.760Z,3.83
2023-04-23T15:53:48.555Z,3.47
2023-04-23T15:56:15.309Z,3.65
2023-04-23T15:58:42.154Z,4.07
2023-04-23T16:01:09.893Z,3.90
2023-04-23T16:03:37.145Z,3.75
2023-04-23T16:06:05.168Z,3.92
2023-04-23T16:08:32.753Z,3.90
2023-04-23T16:10:59.731Z,3.63
2023-04-23T16:13:29.010Z,3.63
2023-04-23T16:15:56.060Z,3.80
2023-04-23T16:18:23.003Z,3.65
2023-04-23T16:20:49.837Z,3.63
2023-04-23T16:23:16.725Z,3.67
2023-04-23T16:25:44.296Z,3.20
2023-04-23T16:28:13.908Z,3.42
2023-04-23T16:30:41.128Z,3.58
2023-04-23T16:33:09.569Z,3.30
2023-04-23T16:35:36.811Z,3.50
2023-04-23T16:38:03.736Z,3.67
2023-04-23T16:40:34.473Z,3.20
2023-04-23T16:43:02.944Z,3.38
2023-04-23T16:45:29.850Z,3.35
2023-04-23T16:47:56.688Z,3.40
2023-04-23T16:50:23.530Z,3.72
2023-04-23T16:52:50.545Z,2.95
2023-04-23T16:55:17.434Z,4.13
2023-04-23T16:57:44.940Z,3.05
2023-04-23T17:00:13.938Z,4.07
2023-04-23T17:02:42.907Z,3.30
2023-04-23T17:05:10.548Z,3.92
2023-04-23T17:07:37.684Z,3.47
2023-04-23T17:10:04.774Z,3.72
2023-04-23T17:12:31.828Z,3.92
2023-04-23T17:14:58.973Z,4.32
2023-04-23T17:17:26.138Z,4.78
2023-04-23T17:19:52.972Z,5.55
2023-04-23T17:22:19.757Z,5.18
2023-04-23T17:24:46.683Z,5.13
2023-04-23T17:27:13.635Z,4.10
2023-04-23T17:29:41.105Z,4.07
2023-04-23T17:32:08.157Z,3.58
2023-04-23T17:34:36.302Z,4.13
2023-04-23T17:37:03.128Z,4.35
2023-04-23T17:39:30.133Z,3.40
2023-04-23T17:41:58.174Z,3.75
2023-04-23T17:44:25.827Z,4.35
2023-04-23T17:46:54.685Z,3.70
2023-04-23T17:49:23.328Z,3.60
2023-04-23T17:51:50.372Z,4.10
2023-04-23T17:54:17.890Z,3.97
2023-04-23T17:56:45.816Z,4.72
2023-04-23T17:59:13.007Z,4.63
2023-04-23T18:01:39.999Z,4.35
2023-04-23T18:04:09.117Z,4.88
2023-04-23T18:06:37.136Z,4.90
2023-04-23T18:09:05.020Z,5.32
2023-04-23T18:11:33.447Z,5.85
2023-04-23T18:14:00.653Z,5.43
2023-04-23T18:16:27.570Z,5.00
2023-04-23T18:18:54.545Z,5.72
2023-04-23T18:21:22.735Z,4.95
2023-04-23T18:23:49.647Z,4.70
2023-04-23T18:26:17.863Z,4.82
2023-04-23T18:28:44.698Z,5.10
2023-04-23T18:31:11.992Z,4.97
2023-04-23T18:33:49.230Z,4.18
2023-04-23T18:36:30.013Z,4.70
2023-04-23T18:38:57.333Z,5.10
2023-04-23T18:41:24.274Z,5.10
2023-04-23T18:43:51.527Z,4.55
2023-04-23T18:46:18.793Z,4.50
2023-04-23T18:48:57.285Z,4.50
2023-04-23T18:51:46.073Z,5.40
2023-04-23T18:54:17.829Z,5.45
2023-04-23T18:56:45.531Z,5.60
2023-04-23T18:59:13.118Z,4.80
2023-04-23T19:01:44.636Z,5.18
2023-04-23T19:04:12.058Z,5.68
2023-04-23T19:06:39.005Z,5.57
2023-04-23T19:09:06.506Z,5.85
2023-04-23T19:11:45.294Z,5.70
2023-04-23T19:14:22.981Z,5.55
2023-04-23T19:16:53.208Z,5.95
2023-04-23T19:19:24.457Z,5.07
2023-04-23T19:21:51.401Z,5.20
2023-04-23T19:24:18.328Z,5.30
2023-04-23T19:26:47.125Z,5.50
2023-04-23T19:29:13.985Z,5.20
2023-04-23T19:31:41.299Z,5.47
2023-04-23T19:34:13.390Z,5.75
2023-04-23T19:36:42.241Z,5.57
2023-04-23T19:39:15.520Z,5.03
2023-04-23T19:42:09.751Z,5.72
2023-04-23T19:44:44.197Z,5.28
2023-04-23T19:47:20.060Z,5.20
2023-04-23T19:49:47.197Z,5.45
2023-04-23T19:52:19.625Z,5.03
2023-04-23T19:54:49.204Z,5.45
2023-04-23T19:57:19.865Z,5.72
2023-04-23T19:59:51.549Z,5.45
2023-04-23T20:02:21.715Z,5.55
2023-04-23T20:04:48.735Z,5.60
2023-04-23T20:07:18.044Z,5.32
2023-04-23T20:09:46.056Z,5.35
2023-04-23T20:12:22.570Z,5.38
2023-04-23T20:14:57.411Z,6.40
2023-04-23T20:17:35.453Z,6.05
2023-04-23T20:20:42.742Z,6.03
2023-04-23T20:23:20.374Z,5.65
2023-04-23T20:25:52.358Z,5.80
2023-04-23T20:28:20.505Z,5.28
2023-04-23T20:30:50.489Z,5.57
2023-04-23T20:33:25.079Z,5.32
2023-04-23T20:36:17.346Z,5.25
2023-04-23T20:38:54.816Z,4.70
2023-04-23T20:41:25.083Z,4.97
2023-04-23T20:44:12.028Z,4.50
2023-04-23T20:49:14.136Z,5.20
2023-04-23T20:51:45.924Z,5.07
2023-04-23T20:54:12.968Z,4.47
2023-04-23T20:56:47.251Z,5.03
2023-04-23T20:59:26.313Z,5.90
2023-04-23T21:01:57.915Z,5.05
2023-04-23T21:04:31.741Z,4.72
2023-04-23T21:07:03.757Z,4.93
2023-04-23T21:09:30.763Z,5.15
2023-04-23T21:12:01.193Z,4.47
2023-04-23T21:14:34.206Z,5.65
2023-04-23T21:17:01.277Z,4.63
2023-04-23T21:19:30.323Z,4.30
2023-04-23T21:21:57.194Z,4.00
2023-04-23T21:24:27.102Z,4.30
2023-04-23T21:26:59.499Z,4.00
2023-04-23T21:29:26.545Z,4.63
2023-04-23T21:31:54.581Z,4.93
2023-04-23T21:34:22.292Z,5.45
2023-04-23T21:36:49.610Z,4.72
2023-04-23T21:39:18.998Z,5.47
2023-04-23T21:41:46.850Z,5.22
2023-04-23T21:44:13.855Z,6.03
2023-04-23T21:46:43.416Z,6.07
2023-04-23T21:49:13.186Z,7.05
2023-04-23T21:51:41.255Z,6.22
2023-04-23T21:54:10.596Z,5.78
2023-04-23T21:57:17.508Z,5.85
2023-04-23T21:59:45.295Z,4.45
2023-04-23T22:02:19.869Z,4.78
2023-04-23T22:04:49.198Z,4.53
2023-04-23T22:07:16.151Z,4.35
2023-04-23T22:09:43.367Z,4.38
2023-04-23T22:12:11.872Z,5.30
2023-04-23T22:14:38.823Z,5.20
2023-04-23T22:17:07.599Z,4.43
2023-04-23T22:19:35.808Z,5.85
2023-04-23T22:22:07.647Z,5.40
2023-04-23T22:24:41.876Z,6.25
2023-04-23T22:27:14.383Z,5.90
2023-04-23T22:29:45.696Z,6.32
2023-04-23T22:32:15.441Z,6.18
2023-04-23T22:34:47.410Z,5.85
2023-04-23T22:37:15.079Z,6.43
2023-04-23T22:39:42.620Z,6.50
2023-04-23T22:42:09.968Z,5.97
2023-04-23T22:44:37.948Z,6.10
2023-04-23T22:47:05.724Z,6.05
2023-04-23T22:49:35.167Z,5.78
2023-04-23T22:52:02.550Z,5.43
2023-04-23T22:54:29.709Z,6.22
2023-04-23T22:56:56.606Z,6.18
2023-04-23T22:59:24.633Z,5.47
2023-04-23T23:01:51.884Z,5.93
2023-04-23T23:04:18.917Z,6.22
2023-04-23T23:06:46.433Z,6.47
2023-04-23T23:09:13.207Z,6.85
2023-04-23T23:11:40.162Z,6.80
2023-04-23T23:14:07.096Z,6.38
2023-04-23T23:16:33.963Z,6.90
2023-04-23T23:19:00.790Z,7.65
2023-04-23T23:21:27.684Z,7.72
2023-04-23T23:23:54.492Z,8.57
2023-04-23T23:26:21.537Z,7.82
2023-04-23T23:28:48.395Z,7.72
2023-04-23T23:31:15.272Z,7.35
2023-04-23T23:33:42.158Z,7.28
2023-04-23T23:36:09.021Z,7.13
2023-04-23T23:38:35.755Z,7.20
2023-04-23T23:41:02.622Z,6.72
2023-04-23T23:43:29.818Z,6.78
2023-04-23T23:45:56.716Z,6.72
2023-04-23T23:48:23.619Z,7.22
2023-04-23T23:50:50.500Z,7.50
2023-04-23T23:53:17.319Z,7.60
2023-04-23T23:55:44.253Z,6.88
2023-04-23T23:58:11.230Z,7.25
